createdAt,value
2018-06-15T00:00:30.011Z,16.24
2018-06-15T00:01:29.998Z,16.26
2018-06-15T00:02:29.984Z,16.17
2018-06-15T00:03:29.977Z,16.29
2018-06-15T00:04:29.973Z,16.21
2018-06-15T00:05:29.966Z,16.24
2018-06-15T00:06:30.720Z,16.21
2018-06-15T00:07:29.959Z,16.29
2018-06-15T00:08:29.952Z,16.21
2018-06-15T00:09:29.947Z,16.24
2018-06-15T00:10:29.940Z,16.24
2018-06-15T00:11:29.945Z,16.23
2018-06-15T00:12:29.927Z,16.21
2018-06-15T00:13:29.917Z,16.15
2018-06-15T00:14:29.914Z,16.16
2018-06-15T00:15:29.921Z,16.24
2018-06-15T00:16:29.905Z,16.17
2018-06-15T00:17:29.898Z,16.08
2018-06-15T00:18:29.891Z,16.28
2018-06-15T00:19:29.884Z,16.12
2018-06-15T00:20:29.884Z,16.12
2018-06-15T00:21:29.873Z,16.24
2018-06-15T00:22:29.874Z,16.15
2018-06-15T00:23:29.880Z,16.24
2018-06-15T00:24:29.859Z,16.21
2018-06-15T00:25:29.854Z,16.23
2018-06-15T00:26:29.851Z,16.15
2018-06-15T00:27:29.836Z,16.21
2018-06-15T00:28:29.835Z,16.26
2018-06-15T00:29:29.826Z,16.16
2018-06-15T00:30:29.824Z,16.15
2018-06-15T00:31:29.817Z,16.20
2018-06-15T00:32:29.809Z,16.28
2018-06-15T00:33:29.802Z,16.21
2018-06-15T00:34:29.797Z,16.23
2018-06-15T00:35:29.792Z,16.13
2018-06-15T00:36:29.786Z,16.28
2018-06-15T00:37:29.781Z,16.28
2018-06-15T00:38:29.783Z,16.21
2018-06-15T00:39:29.776Z,16.17
2018-06-15T00:40:29.775Z,16.23
2018-06-15T00:41:29.757Z,16.12
2018-06-15T00:42:29.757Z,16.13
2018-06-15T00:43:29.744Z,16.17
2018-06-15T00:44:29.743Z,16.28
2018-06-15T00:45:29.731Z,16.23
2018-06-15T00:46:29.732Z,16.15
2018-06-15T00:47:29.727Z,16.09
2018-06-15T00:48:29.715Z,16.09
2018-06-15T00:49:29.708Z,16.12
2018-06-15T00:50:29.705Z,16.17
2018-06-15T00:51:29.704Z,16.17
2018-06-15T00:52:29.701Z,16.12
2018-06-15T00:53:29.693Z,16.20
2018-06-15T00:54:29.684Z,16.17
2018-06-15T00:55:29.703Z,16.10
2018-06-15T00:56:29.696Z,16.05
2018-06-15T00:57:29.667Z,16.10
2018-06-15T00:58:29.663Z,16.15
2018-06-15T00:59:29.660Z,16.09
2018-06-15T01:00:29.650Z,16.17
2018-06-15T01:01:29.651Z,16.09
2018-06-15T01:02:29.642Z,16.04
2018-06-15T01:03:29.642Z,16.09
2018-06-15T01:04:29.631Z,16.04
2018-06-15T01:05:29.621Z,16.20
2018-06-15T01:06:29.614Z,16.04
2018-06-15T01:07:29.610Z,16.20
2018-06-15T01:08:29.602Z,16.08
2018-06-15T01:09:29.594Z,16.05
2018-06-15T01:10:29.591Z,16.04
2018-06-15T01:11:29.586Z,16.12
2018-06-15T01:12:29.581Z,16.16
2018-06-15T01:13:29.616Z,16.13
2018-06-15T01:14:29.577Z,16.02
2018-06-15T01:15:29.572Z,16.12
2018-06-15T01:16:29.566Z,16.09
2018-06-15T01:17:29.550Z,16.09
2018-06-15T01:18:29.550Z,16.05
2018-06-15T01:19:29.542Z,16.04
2018-06-15T01:20:29.534Z,16.02
2018-06-15T01:21:29.529Z,16.05
2018-06-15T01:22:29.518Z,16.04
2018-06-15T01:23:29.514Z,16.12
2018-06-15T01:24:29.517Z,16.08
2018-06-15T01:25:29.503Z,16.08
2018-06-15T01:26:29.500Z,16.01
2018-06-15T01:27:29.497Z,16.02
2018-06-15T01:28:29.488Z,16.04
2018-06-15T01:29:29.483Z,15.95
2018-06-15T01:30:29.472Z,15.92
2018-06-15T01:31:29.467Z,16.02
2018-06-15T01:32:29.482Z,16.00
2018-06-15T01:33:29.462Z,15.94
2018-06-15T01:34:29.454Z,15.97
2018-06-15T01:35:29.451Z,15.97
2018-06-15T01:36:29.447Z,15.92
2018-06-15T01:37:29.431Z,15.92
2018-06-15T01:38:29.428Z,15.86
2018-06-15T01:39:30.258Z,15.79
2018-06-15T01:40:29.419Z,15.90
2018-06-15T01:41:29.408Z,15.86
2018-06-15T01:42:29.406Z,15.77
2018-06-15T01:43:29.403Z,15.84
2018-06-15T01:44:29.394Z,15.83
2018-06-15T01:45:29.384Z,15.80
2018-06-15T01:46:29.380Z,15.86
2018-06-15T01:47:29.377Z,15.77
2018-06-15T01:48:29.370Z,15.77
2018-06-15T01:49:29.363Z,15.72
2018-06-15T01:50:29.357Z,15.67
2018-06-15T01:51:29.347Z,15.72
2018-06-15T01:52:29.345Z,15.70
2018-06-15T01:53:29.338Z,15.68
2018-06-15T01:54:29.339Z,15.73
2018-06-15T01:55:29.329Z,15.64
2018-06-15T01:56:29.317Z,15.64
2018-06-15T01:57:29.311Z,15.54
2018-06-15T01:58:29.305Z,15.64
2018-06-15T01:59:29.308Z,15.62
2018-06-15T02:00:29.297Z,15.61
2018-06-15T02:01:29.395Z,15.47
2018-06-15T02:02:29.283Z,15.49
2018-06-15T02:03:29.280Z,15.55
2018-06-15T02:04:29.267Z,15.46
2018-06-15T02:05:29.265Z,15.40
2018-06-15T02:06:29.258Z,15.36
2018-06-15T02:07:29.255Z,15.40
2018-06-15T02:08:29.249Z,15.40
2018-06-15T02:09:29.244Z,15.40
2018-06-15T02:10:29.260Z,15.40
2018-06-15T02:11:29.228Z,15.40
2018-06-15T02:12:29.225Z,15.28
2018-06-15T02:13:29.270Z,15.28
2018-06-15T02:14:29.230Z,15.28
2018-06-15T02:15:29.202Z,15.31
2018-06-15T02:16:29.201Z,15.29
2018-06-15T02:17:29.189Z,15.36
2018-06-15T02:18:29.185Z,15.31
2018-06-15T02:19:29.176Z,15.22
2018-06-15T02:20:29.170Z,15.28
2018-06-15T02:21:29.174Z,15.29
2018-06-15T02:22:29.160Z,15.31
2018-06-15T02:23:29.153Z,15.21
2018-06-15T02:24:29.145Z,15.22
2018-06-15T02:25:29.144Z,15.21
2018-06-15T02:26:29.135Z,15.15
2018-06-15T02:27:29.135Z,15.17
2018-06-15T02:28:29.124Z,15.17
2018-06-15T02:29:29.120Z,15.18
2018-06-15T02:30:29.110Z,15.11
2018-06-15T02:31:29.104Z,15.14
2018-06-15T02:32:29.098Z,15.10
2018-06-15T02:33:29.088Z,15.15
2018-06-15T02:34:29.083Z,15.14
2018-06-15T02:35:29.077Z,15.18
2018-06-15T02:36:29.072Z,15.10
2018-06-15T02:37:29.075Z,15.09
2018-06-15T02:38:29.056Z,15.09
2018-06-15T02:39:29.054Z,15.06
2018-06-15T02:40:29.042Z,15.07
2018-06-15T02:41:29.040Z,15.17
2018-06-15T02:42:29.039Z,15.04
2018-06-15T02:43:29.028Z,15.06
2018-06-15T02:44:29.028Z,15.06
2018-06-15T02:45:29.038Z,15.04
2018-06-15T02:46:29.007Z,15.07
2018-06-15T02:47:29.000Z,14.97
2018-06-15T02:48:28.993Z,14.96
2018-06-15T02:49:29.009Z,15.06
2018-06-15T02:50:28.983Z,14.91
2018-06-15T02:51:28.976Z,14.96
2018-06-15T02:52:28.970Z,14.99
2018-06-15T02:53:28.974Z,14.97
2018-06-15T02:54:28.953Z,14.91
2018-06-15T02:55:28.954Z,14.89
2018-06-15T02:56:28.943Z,15.00
2018-06-15T02:57:28.948Z,14.94
2018-06-15T02:58:28.931Z,14.99
2018-06-15T02:59:28.925Z,14.94
2018-06-15T03:00:28.915Z,15.02
2018-06-15T03:01:28.915Z,14.97
2018-06-15T03:02:28.916Z,14.97
2018-06-15T03:03:28.894Z,14.97
2018-06-15T03:04:28.894Z,15.02
2018-06-15T03:05:28.889Z,15.00
2018-06-15T03:06:28.886Z,15.04
2018-06-15T03:07:28.904Z,15.02
2018-06-15T03:08:28.863Z,14.97
2018-06-15T03:09:28.859Z,14.97
2018-06-15T03:10:28.851Z,15.09
2018-06-15T03:11:28.847Z,15.06
2018-06-15T03:12:29.791Z,15.09
2018-06-15T03:13:28.832Z,14.99
2018-06-15T03:14:28.832Z,14.99
2018-06-15T03:15:28.822Z,15.02
2018-06-15T03:16:28.812Z,15.10
2018-06-15T03:17:28.807Z,15.09
2018-06-15T03:18:28.799Z,15.07
2018-06-15T03:19:28.794Z,15.02
2018-06-15T03:20:28.789Z,15.10
2018-06-15T03:21:28.780Z,15.10
2018-06-15T03:22:28.772Z,15.06
2018-06-15T03:23:28.766Z,15.06
2018-06-15T03:24:28.764Z,15.06
2018-06-15T03:25:28.755Z,15.10
2018-06-15T03:26:28.748Z,15.11
2018-06-15T03:27:28.744Z,15.11
2018-06-15T03:28:28.740Z,15.22
2018-06-15T03:29:28.734Z,15.25
2018-06-15T03:30:28.730Z,15.22
2018-06-15T03:31:28.742Z,15.18
2018-06-15T03:32:28.718Z,15.21
2018-06-15T03:33:28.703Z,15.18
2018-06-15T03:34:28.700Z,15.31
2018-06-15T03:35:28.695Z,15.31
2018-06-15T03:36:28.690Z,15.36
2018-06-15T03:37:28.680Z,15.31
2018-06-15T03:38:28.677Z,15.36
2018-06-15T03:39:28.668Z,15.33
2018-06-15T03:40:28.663Z,15.33
2018-06-15T03:41:28.658Z,15.35
2018-06-15T03:42:28.648Z,15.28
2018-06-15T03:43:28.644Z,15.31
2018-06-15T03:44:28.642Z,15.29
2018-06-15T03:45:28.631Z,15.33
2018-06-15T03:46:28.629Z,15.28
2018-06-15T03:47:28.624Z,15.29
2018-06-15T03:48:28.616Z,15.35
2018-06-15T03:49:28.610Z,15.28
2018-06-15T03:50:28.601Z,15.37
2018-06-15T03:51:28.596Z,15.33
2018-06-15T03:52:28.593Z,15.37
2018-06-15T03:53:28.589Z,15.36
2018-06-15T03:54:28.584Z,15.40
2018-06-15T03:55:28.575Z,15.40
2018-06-15T03:56:28.567Z,15.47
2018-06-15T03:57:28.559Z,15.52
2018-06-15T03:58:28.553Z,15.44
2018-06-15T03:59:28.565Z,15.49
2018-06-15T04:00:28.542Z,15.42
2018-06-15T04:01:28.538Z,15.51
2018-06-15T04:02:28.533Z,15.49
2018-06-15T04:03:28.526Z,15.52
2018-06-15T04:04:28.523Z,15.49
2018-06-15T04:05:28.517Z,15.47
2018-06-15T04:06:28.510Z,15.54
2018-06-15T04:07:28.502Z,15.49
2018-06-15T04:08:28.503Z,15.44
2018-06-15T04:09:28.489Z,15.47
2018-06-15T04:10:28.482Z,15.55
2018-06-15T04:11:28.481Z,15.51
2018-06-15T04:12:28.481Z,15.52
2018-06-15T04:13:28.475Z,15.52
2018-06-15T04:14:28.467Z,15.62
2018-06-15T04:15:28.466Z,15.64
2018-06-15T04:16:28.448Z,15.64
2018-06-15T04:17:28.444Z,15.65
2018-06-15T04:18:28.439Z,15.57
2018-06-15T04:19:28.433Z,15.61
2018-06-15T04:20:28.428Z,15.68
2018-06-15T04:21:28.420Z,15.59
2018-06-15T04:22:28.415Z,15.67
2018-06-15T04:23:28.407Z,15.73
2018-06-15T04:24:28.400Z,15.73
2018-06-15T04:25:28.396Z,15.68
2018-06-15T04:26:28.393Z,15.70
2018-06-15T04:27:28.386Z,15.72
2018-06-15T04:28:28.379Z,15.73
2018-06-15T04:29:28.372Z,15.73
2018-06-15T04:30:28.370Z,15.73
2018-06-15T04:31:28.360Z,15.73
2018-06-15T04:32:28.352Z,15.79
2018-06-15T04:33:28.350Z,15.82
2018-06-15T04:34:28.348Z,15.79
2018-06-15T04:35:28.340Z,15.76
2018-06-15T04:36:28.333Z,15.82
2018-06-15T04:37:28.327Z,15.82
2018-06-15T04:38:28.322Z,15.83
2018-06-15T04:39:28.315Z,15.86
2018-06-15T04:40:28.312Z,15.86
2018-06-15T04:41:28.307Z,15.88
2018-06-15T04:42:28.301Z,15.83
2018-06-15T04:43:28.295Z,15.91
2018-06-15T04:44:28.285Z,15.91
2018-06-15T04:45:28.283Z,15.94
2018-06-15T04:46:28.279Z,16.02
2018-06-15T04:47:28.269Z,16.04
2018-06-15T04:48:28.264Z,15.98
2018-06-15T04:49:28.260Z,15.94
2018-06-15T04:50:28.256Z,15.98
2018-06-15T04:51:28.249Z,16.00
2018-06-15T04:52:28.241Z,16.05
2018-06-15T04:53:28.240Z,16.00
2018-06-15T04:54:28.233Z,16.04
2018-06-15T04:55:28.225Z,16.08
2018-06-15T04:56:28.218Z,16.04
2018-06-15T04:57:28.215Z,16.00
2018-06-15T04:58:28.208Z,16.08
2018-06-15T04:59:28.200Z,16.04
2018-06-15T05:00:28.199Z,16.02
2018-06-15T05:01:28.208Z,16.02
2018-06-15T05:02:28.188Z,16.10
2018-06-15T05:03:28.186Z,16.13
2018-06-15T05:04:28.174Z,16.10
2018-06-15T05:05:28.170Z,16.09
2018-06-15T05:06:28.162Z,16.20
2018-06-15T05:07:28.185Z,16.15
2018-06-15T05:08:28.176Z,16.13
2018-06-15T05:09:28.154Z,16.21
2018-06-15T05:10:28.144Z,16.20
2018-06-15T05:11:28.153Z,16.29
2018-06-15T05:12:28.132Z,16.26
2018-06-15T05:13:28.129Z,16.28
2018-06-15T05:14:28.120Z,16.24
2018-06-15T05:15:28.115Z,16.29
2018-06-15T05:16:28.113Z,16.29
2018-06-15T05:17:28.117Z,16.31
2018-06-15T05:18:28.100Z,16.38
2018-06-15T05:19:28.094Z,16.32
2018-06-15T05:20:28.090Z,16.31
2018-06-15T05:21:28.091Z,16.36
2018-06-15T05:22:28.083Z,16.38
2018-06-15T05:23:28.078Z,16.46
2018-06-15T05:24:28.072Z,16.47
2018-06-15T05:25:28.068Z,16.47
2018-06-15T05:26:28.068Z,16.47
2018-06-15T05:27:28.059Z,16.56
2018-06-15T05:28:28.069Z,16.60
2018-06-15T05:29:28.058Z,16.57
2018-06-15T05:30:28.039Z,16.54
2018-06-15T05:31:28.037Z,16.54
2018-06-15T05:32:28.847Z,16.60
2018-06-15T05:33:28.029Z,16.56
2018-06-15T05:34:28.018Z,16.57
2018-06-15T05:35:28.015Z,16.56
2018-06-15T05:36:28.015Z,16.58
2018-06-15T05:37:28.006Z,16.54
2018-06-15T05:38:27.999Z,16.65
2018-06-15T05:39:28.036Z,16.71
2018-06-15T05:40:27.988Z,16.76
2018-06-15T05:41:27.983Z,16.84
2018-06-15T05:42:28.004Z,16.79
2018-06-15T05:43:27.975Z,16.91
2018-06-15T05:44:27.972Z,16.76
2018-06-15T05:45:27.964Z,16.90
2018-06-15T05:46:27.960Z,16.86
2018-06-15T05:47:27.959Z,16.87
2018-06-15T05:48:27.992Z,16.89
2018-06-15T05:49:27.944Z,16.90
2018-06-15T05:50:27.941Z,16.99
2018-06-15T05:51:27.938Z,16.94
2018-06-15T05:52:27.932Z,16.87
2018-06-15T05:53:27.927Z,16.84
2018-06-15T05:54:27.920Z,16.78
2018-06-15T05:55:27.937Z,16.87
2018-06-15T05:56:27.911Z,16.87
2018-06-15T05:57:27.910Z,16.96
2018-06-15T05:58:27.902Z,16.89
2018-06-15T05:59:27.901Z,16.94
2018-06-15T06:00:27.937Z,16.87
2018-06-15T06:01:27.891Z,16.87
2018-06-15T06:02:27.886Z,16.87
2018-06-15T06:03:27.880Z,16.91
2018-06-15T06:04:27.885Z,17.01
2018-06-15T06:05:27.874Z,17.01
2018-06-15T06:06:27.863Z,16.97
2018-06-15T06:07:27.858Z,16.97
2018-06-15T06:08:27.862Z,16.99
2018-06-15T06:09:27.856Z,17.06
2018-06-15T06:10:27.849Z,17.05
2018-06-15T06:11:27.888Z,17.05
2018-06-15T06:12:27.866Z,17.08
2018-06-15T06:13:27.830Z,16.99
2018-06-15T06:14:27.829Z,17.09
2018-06-15T06:15:27.824Z,17.06
2018-06-15T06:16:27.820Z,17.08
2018-06-15T06:17:27.824Z,17.08
2018-06-15T06:18:27.924Z,17.06
2018-06-15T06:19:27.888Z,17.15
2018-06-15T06:20:27.806Z,17.12
2018-06-15T06:21:27.810Z,17.15
2018-06-15T06:22:27.916Z,17.15
2018-06-15T06:23:27.815Z,17.14
2018-06-15T06:24:27.857Z,17.31
2018-06-15T06:25:27.779Z,17.34
2018-06-15T06:26:27.822Z,17.34
2018-06-15T06:27:27.775Z,17.45
2018-06-15T06:28:27.774Z,17.48
2018-06-15T06:29:27.796Z,17.45
2018-06-15T06:30:27.775Z,17.48
2018-06-15T06:31:27.751Z,17.39
2018-06-15T06:32:27.793Z,17.52
2018-06-15T06:33:27.745Z,17.71
2018-06-15T06:34:27.746Z,17.74
2018-06-15T06:35:27.740Z,17.80
2018-06-15T06:36:27.737Z,17.87
2018-06-15T06:37:27.729Z,17.87
2018-06-15T06:38:27.740Z,17.90
2018-06-15T06:39:27.720Z,18.03
2018-06-15T06:40:27.718Z,17.97
2018-06-15T06:41:27.714Z,18.05
2018-06-15T06:42:27.709Z,18.11
2018-06-15T06:43:27.707Z,18.28
2018-06-15T06:44:27.708Z,18.43
2018-06-15T06:45:27.702Z,18.53
2018-06-15T06:46:27.755Z,18.58
2018-06-15T06:47:27.700Z,18.58
2018-06-15T06:48:27.693Z,18.71
2018-06-15T06:49:27.685Z,18.70
2018-06-15T06:50:27.718Z,18.73
2018-06-15T06:51:27.686Z,18.83
2018-06-15T06:52:27.683Z,18.73
2018-06-15T06:53:27.681Z,18.90
2018-06-15T06:54:27.679Z,18.99
2018-06-15T06:55:27.678Z,19.07
2018-06-15T06:56:27.675Z,19.12
2018-06-15T06:57:27.665Z,19.34
2018-06-15T06:58:27.726Z,19.51
2018-06-15T06:59:27.667Z,19.71
2018-06-15T07:00:27.662Z,19.94
2018-06-15T07:01:27.659Z,20.06
2018-06-15T07:02:27.657Z,20.06
2018-06-15T07:03:27.654Z,20.07
2018-06-15T07:04:27.651Z,20.09
2018-06-15T07:05:27.655Z,20.07
2018-06-15T07:06:27.649Z,20.13
2018-06-15T07:07:27.650Z,20.06
2018-06-15T07:08:27.657Z,20.09
2018-06-15T07:09:27.647Z,20.10
2018-06-15T07:10:27.646Z,20.11
2018-06-15T07:11:27.646Z,20.06
2018-06-15T07:12:27.644Z,20.19
2018-06-15T07:13:27.643Z,20.11
2018-06-15T07:14:27.641Z,20.07
2018-06-15T07:15:27.639Z,20.06
2018-06-15T07:16:27.646Z,19.99
2018-06-15T07:17:27.637Z,19.79
2018-06-15T07:18:27.635Z,19.82
2018-06-15T07:19:27.638Z,19.88
2018-06-15T07:20:27.634Z,19.79
2018-06-15T07:21:27.633Z,19.73
2018-06-15T07:22:27.630Z,19.74
2018-06-15T07:23:27.624Z,19.66
2018-06-15T07:24:27.620Z,19.69
2018-06-15T07:25:27.623Z,19.67
2018-06-15T07:26:27.621Z,19.55
2018-06-15T07:27:27.624Z,19.55
2018-06-15T07:28:27.622Z,19.51
2018-06-15T07:29:27.624Z,19.48
2018-06-15T07:30:27.616Z,19.51
2018-06-15T07:31:27.617Z,19.55
2018-06-15T07:32:27.616Z,19.55
2018-06-15T07:33:27.620Z,19.56
2018-06-15T07:34:27.616Z,19.52
2018-06-15T07:35:27.602Z,19.51
2018-06-15T07:36:27.600Z,19.54
2018-06-15T07:37:27.599Z,19.40
2018-06-15T07:38:27.597Z,19.36
2018-06-15T07:39:27.592Z,19.30
2018-06-15T07:40:27.590Z,19.45
2018-06-15T07:41:27.591Z,19.39
2018-06-15T07:42:27.593Z,19.45
2018-06-15T07:43:27.598Z,19.45
2018-06-15T07:44:27.583Z,19.58
2018-06-15T07:45:27.583Z,19.82
2018-06-15T07:46:27.576Z,20.07
2018-06-15T07:47:27.577Z,20.56
2018-06-15T07:48:27.579Z,20.67
2018-06-15T07:49:27.570Z,20.65
2018-06-15T07:50:27.575Z,20.62
2018-06-15T07:51:27.568Z,20.65
2018-06-15T07:52:27.624Z,20.56
2018-06-15T07:53:27.571Z,20.56
2018-06-15T07:54:27.565Z,20.39
2018-06-15T07:55:27.567Z,20.26
2018-06-15T07:56:27.566Z,20.24
2018-06-15T07:57:27.566Z,20.22
2018-06-15T07:58:27.561Z,20.10
2018-06-15T07:59:27.629Z,19.96
2018-06-15T08:00:27.556Z,19.94
2018-06-15T08:01:27.551Z,19.82
2018-06-15T08:02:27.552Z,19.82
2018-06-15T08:03:27.554Z,19.81
2018-06-15T08:04:27.551Z,19.64
2018-06-15T08:05:27.549Z,19.76
2018-06-15T08:06:27.546Z,19.76
2018-06-15T08:07:27.544Z,19.70
2018-06-15T08:08:27.542Z,19.70
2018-06-15T08:09:27.541Z,19.74
2018-06-15T08:10:27.540Z,19.82
2018-06-15T08:11:27.533Z,19.85
2018-06-15T08:12:27.534Z,19.82
2018-06-15T08:13:27.526Z,19.84
2018-06-15T08:14:27.526Z,19.85
2018-06-15T08:15:27.525Z,19.85
2018-06-15T08:16:27.532Z,19.81
2018-06-15T08:17:28.436Z,19.73
2018-06-15T08:18:27.522Z,19.82
2018-06-15T08:19:27.514Z,19.85
2018-06-15T08:20:27.512Z,20.09
2018-06-15T08:21:27.509Z,20.14
2018-06-15T08:22:27.505Z,20.24
2018-06-15T08:23:27.513Z,20.19
2018-06-15T08:24:27.512Z,20.09
2018-06-15T08:25:27.504Z,20.14
2018-06-15T08:26:27.497Z,20.40
2018-06-15T08:27:27.501Z,20.55
2018-06-15T08:28:27.495Z,20.59
2018-06-15T08:29:27.496Z,20.66
2018-06-15T08:30:27.496Z,20.62
2018-06-15T08:31:27.493Z,20.52
2018-06-15T08:32:27.489Z,20.69
2018-06-15T08:33:27.485Z,20.99
2018-06-15T08:34:27.490Z,21.15
2018-06-15T08:35:27.483Z,21.61
2018-06-15T08:36:27.502Z,22.06
2018-06-15T08:37:27.487Z,22.20
2018-06-15T08:38:27.485Z,22.26
2018-06-15T08:39:27.483Z,22.51
2018-06-15T08:40:27.485Z,22.75
2018-06-15T08:41:27.480Z,22.72
2018-06-15T08:42:27.481Z,22.57
2018-06-15T08:43:27.485Z,22.51
2018-06-15T08:44:27.490Z,22.50
2018-06-15T08:45:27.493Z,22.43
2018-06-15T08:46:27.487Z,22.39
2018-06-15T08:47:27.486Z,22.48
2018-06-15T08:48:27.488Z,22.57
2018-06-15T08:49:27.490Z,22.55
2018-06-15T08:50:27.495Z,22.54
2018-06-15T08:51:27.496Z,22.30
2018-06-15T08:52:27.494Z,22.45
2018-06-15T08:53:27.494Z,22.50
2018-06-15T08:54:27.496Z,22.57
2018-06-15T08:55:27.497Z,22.60
2018-06-15T08:56:27.497Z,22.60
2018-06-15T08:57:27.497Z,22.54
2018-06-15T08:58:27.504Z,22.75
2018-06-15T08:59:27.504Z,22.81
2018-06-15T09:00:27.505Z,22.87
2018-06-15T09:01:27.521Z,22.76
2018-06-15T09:02:27.505Z,22.72
2018-06-15T09:03:27.504Z,22.70
2018-06-15T09:04:27.509Z,22.60
2018-06-15T09:05:27.513Z,22.48
2018-06-15T09:06:27.511Z,22.29
2018-06-15T09:07:27.513Z,22.41
2018-06-15T09:08:27.508Z,22.41
2018-06-15T09:09:27.513Z,22.26
2018-06-15T09:10:27.512Z,22.28
2018-06-15T09:11:27.517Z,22.13
2018-06-15T09:12:27.517Z,22.08
2018-06-15T09:13:27.516Z,22.13
2018-06-15T09:14:27.517Z,22.30
2018-06-15T09:15:27.516Z,22.53
2018-06-15T09:16:27.514Z,22.66
2018-06-15T09:17:27.514Z,22.76
2018-06-15T09:18:27.516Z,22.81
2018-06-15T09:19:27.518Z,22.91
2018-06-15T09:20:27.524Z,22.88
2018-06-15T09:21:27.519Z,23.21
2018-06-15T09:22:27.516Z,23.32
2018-06-15T09:23:27.522Z,23.71
2018-06-15T09:24:27.521Z,23.99
2018-06-15T09:25:27.521Z,24.02
2018-06-15T09:26:27.528Z,23.80
2018-06-15T09:27:27.525Z,23.68
2018-06-15T09:28:27.530Z,23.39
2018-06-15T09:29:27.526Z,23.51
2018-06-15T09:30:27.524Z,23.58
2018-06-15T09:31:27.530Z,23.48
2018-06-15T09:32:27.525Z,23.37
2018-06-15T09:33:27.532Z,23.27
2018-06-15T09:34:27.542Z,23.20
2018-06-15T09:35:27.535Z,23.10
2018-06-15T09:36:27.534Z,23.02
2018-06-15T09:37:27.531Z,23.06
2018-06-15T09:38:27.540Z,23.10
2018-06-15T09:39:27.540Z,23.21
2018-06-15T09:40:27.541Z,23.25
2018-06-15T09:41:27.540Z,23.34
2018-06-15T09:42:27.543Z,23.39
2018-06-15T09:43:27.542Z,23.61
2018-06-15T09:44:27.544Z,23.77
2018-06-15T09:45:27.543Z,23.91
2018-06-15T09:46:27.552Z,24.01
2018-06-15T09:47:27.552Z,24.20
2018-06-15T09:48:27.550Z,24.43
2018-06-15T09:49:27.551Z,24.69
2018-06-15T09:50:27.551Z,24.78
2018-06-15T09:51:27.553Z,24.76
2018-06-15T09:52:27.554Z,24.76
2018-06-15T09:53:27.558Z,24.54
2018-06-15T09:54:27.561Z,24.35
2018-06-15T09:55:27.562Z,24.30
2018-06-15T09:56:27.562Z,24.17
2018-06-15T09:57:27.567Z,24.10
2018-06-15T09:58:27.570Z,24.03
2018-06-15T09:59:27.573Z,23.86
2018-06-15T10:00:27.573Z,23.77
2018-06-15T10:01:27.575Z,23.66
2018-06-15T10:02:27.574Z,23.62
2018-06-15T10:03:27.574Z,23.50
2018-06-15T10:04:27.582Z,23.34
2018-06-15T10:05:27.573Z,23.37
2018-06-15T10:06:27.572Z,23.39
2018-06-15T10:07:27.585Z,23.39
2018-06-15T10:08:27.581Z,23.34
2018-06-15T10:09:27.583Z,23.31
2018-06-15T10:10:27.583Z,23.23
2018-06-15T10:11:27.582Z,23.18
2018-06-15T10:12:27.584Z,23.10
2018-06-15T10:13:27.585Z,23.09
2018-06-15T10:14:27.590Z,22.96
2018-06-15T10:15:27.587Z,23.10
2018-06-15T10:16:27.590Z,22.90
2018-06-15T10:17:27.583Z,23.05
2018-06-15T10:18:27.588Z,23.09
2018-06-15T10:19:27.587Z,22.98
2018-06-15T10:20:27.602Z,22.96
2018-06-15T10:21:27.587Z,22.75
2018-06-15T10:22:27.593Z,22.65
2018-06-15T10:23:27.599Z,22.60
2018-06-15T10:24:27.586Z,22.57
2018-06-15T10:25:27.585Z,22.63
2018-06-15T10:26:27.589Z,22.81
2018-06-15T10:27:27.588Z,23.31
2018-06-15T10:28:27.587Z,23.54
2018-06-15T10:29:27.590Z,23.84
2018-06-15T10:30:27.592Z,24.23
2018-06-15T10:31:27.588Z,24.53
2018-06-15T10:32:27.592Z,24.84
2018-06-15T10:33:27.593Z,25.13
2018-06-15T10:34:27.602Z,25.29
2018-06-15T10:35:27.605Z,25.47
2018-06-15T10:36:27.610Z,25.48
2018-06-15T10:37:27.605Z,25.75
2018-06-15T10:38:27.615Z,26.06
2018-06-15T10:39:27.651Z,26.19
2018-06-15T10:40:27.623Z,25.99
2018-06-15T10:41:27.631Z,25.90
2018-06-15T10:42:27.633Z,25.77
2018-06-15T10:43:27.636Z,25.53
2018-06-15T10:44:27.641Z,25.50
2018-06-15T10:45:27.643Z,25.60
2018-06-15T10:46:27.647Z,25.70
2018-06-15T10:47:27.658Z,25.87
2018-06-15T10:48:27.662Z,25.99
2018-06-15T10:49:27.667Z,26.09
2018-06-15T10:50:27.672Z,25.93
2018-06-15T10:51:27.678Z,25.93
2018-06-15T10:52:27.685Z,25.77
2018-06-15T10:53:27.685Z,25.58
2018-06-15T10:54:27.692Z,25.60
2018-06-15T10:55:27.698Z,25.59
2018-06-15T10:56:27.706Z,25.66
2018-06-15T10:57:27.708Z,25.80
2018-06-15T10:58:27.713Z,25.95
2018-06-15T10:59:27.716Z,26.19
2018-06-15T11:00:27.730Z,26.44
2018-06-15T11:01:27.734Z,26.78
2018-06-15T11:02:27.752Z,26.95
2018-06-15T11:03:27.745Z,26.89
2018-06-15T11:04:27.752Z,26.85
2018-06-15T11:05:27.753Z,27.03
2018-06-15T11:06:27.759Z,26.99
2018-06-15T11:07:27.764Z,26.95
2018-06-15T11:08:27.772Z,26.89
2018-06-15T11:09:27.780Z,26.88
2018-06-15T11:10:27.789Z,26.77
2018-06-15T11:11:27.789Z,26.66
2018-06-15T11:12:27.798Z,26.40
2018-06-15T11:13:27.804Z,26.10
2018-06-15T11:14:27.850Z,26.05
2018-06-15T11:15:27.814Z,26.13
2018-06-15T11:16:27.819Z,26.23
2018-06-15T11:17:27.826Z,26.29
2018-06-15T11:18:27.825Z,26.31
2018-06-15T11:19:27.830Z,26.28
2018-06-15T11:20:27.840Z,26.25
2018-06-15T11:21:27.840Z,25.51
2018-06-15T11:22:27.848Z,25.33
2018-06-15T11:23:27.854Z,25.18
2018-06-15T11:24:27.857Z,25.16
2018-06-15T11:25:27.857Z,24.93
2018-06-15T11:26:27.860Z,24.86
2018-06-15T11:27:27.864Z,24.96
2018-06-15T11:28:27.871Z,25.13
2018-06-15T11:29:27.877Z,25.14
2018-06-15T11:30:27.881Z,25.40
2018-06-15T11:31:27.885Z,25.38
2018-06-15T11:32:27.891Z,25.70
2018-06-15T11:33:27.889Z,25.96
2018-06-15T11:34:27.892Z,26.15
2018-06-15T11:35:27.922Z,26.43
2018-06-15T11:36:27.904Z,26.73
2018-06-15T11:37:27.912Z,27.00
2018-06-15T11:38:27.916Z,27.33
2018-06-15T11:39:27.916Z,27.73
2018-06-15T11:40:27.923Z,28.20
2018-06-15T11:41:27.930Z,28.38
2018-06-15T11:42:27.940Z,28.38
2018-06-15T11:43:27.944Z,28.44
2018-06-15T11:44:27.951Z,28.51
2018-06-15T11:45:27.959Z,28.75
2018-06-15T11:46:27.979Z,28.94
2018-06-15T11:47:27.967Z,28.79
2018-06-15T11:48:27.973Z,28.75
2018-06-15T11:49:27.982Z,28.62
2018-06-15T11:50:27.989Z,28.75
2018-06-15T11:51:27.996Z,28.88
2018-06-15T11:52:28.000Z,28.94
2018-06-15T11:53:28.004Z,28.91
2018-06-15T11:54:28.016Z,28.54
2018-06-15T11:55:28.018Z,28.88
2018-06-15T11:56:28.030Z,29.23
2018-06-15T11:57:28.054Z,29.51
2018-06-15T11:58:28.113Z,29.68
2018-06-15T11:59:28.050Z,29.79
2018-06-15T12:00:28.052Z,29.53
2018-06-15T12:01:28.106Z,28.93
2018-06-15T12:02:28.068Z,28.49
2018-06-15T12:03:28.081Z,28.49
2018-06-15T12:04:28.089Z,28.39
2018-06-15T12:05:28.095Z,28.26
2018-06-15T12:06:28.102Z,28.08
2018-06-15T12:07:28.108Z,27.82
2018-06-15T12:08:28.112Z,27.90
2018-06-15T12:09:28.121Z,28.12
2018-06-15T12:10:28.128Z,28.30
2018-06-15T12:11:28.135Z,28.38
2018-06-15T12:12:28.174Z,28.52
2018-06-15T12:13:28.148Z,28.66
2018-06-15T12:14:28.152Z,29.16
2018-06-15T12:15:28.178Z,29.34
2018-06-15T12:16:28.171Z,29.12
2018-06-15T12:17:28.174Z,28.94
2018-06-15T12:18:28.182Z,28.96
2018-06-15T12:19:28.188Z,28.59
2018-06-15T12:20:28.200Z,28.51
2018-06-15T12:21:28.202Z,28.15
2018-06-15T12:22:28.213Z,28.37
2018-06-15T12:23:28.224Z,28.57
2018-06-15T12:24:28.229Z,28.72
2018-06-15T12:25:28.236Z,28.59
2018-06-15T12:26:28.241Z,28.72
2018-06-15T12:27:28.245Z,28.41
2018-06-15T12:28:28.261Z,28.81
2018-06-15T12:29:28.259Z,29.26
2018-06-15T12:30:28.268Z,29.71
2018-06-15T12:31:28.278Z,29.69
2018-06-15T12:32:28.281Z,29.72
2018-06-15T12:33:28.293Z,29.59
2018-06-15T12:34:28.299Z,29.50
2018-06-15T12:35:28.307Z,29.57
2018-06-15T12:36:28.313Z,29.51
2018-06-15T12:37:28.325Z,29.54
2018-06-15T12:38:28.332Z,29.59
2018-06-15T12:39:28.341Z,29.66
2018-06-15T12:40:28.353Z,29.66
2018-06-15T12:41:28.350Z,29.68
2018-06-15T12:42:28.362Z,29.53
2018-06-15T12:43:28.369Z,29.47
2018-06-15T12:44:28.378Z,29.16
2018-06-15T12:45:28.385Z,28.88
2018-06-15T12:46:28.392Z,28.86
2018-06-15T12:47:28.398Z,28.81
2018-06-15T12:48:28.405Z,28.75
2018-06-15T12:49:28.409Z,28.30
2018-06-15T12:50:28.420Z,27.86
2018-06-15T12:51:28.431Z,27.68
2018-06-15T12:52:28.444Z,27.51